EGNW weather

Wickenby Aerodrome
Lincoln, England, United Kingdom

Public forecast

Using degrees Celsius for public forecast. Weather courtesy of forecast.io.

METAR (pilot weather report)

Closest report is RAF Scampton, 7.2 nm (13.4 km) W. Retrieved 2019/04/25 22:50 UTC (50 minutes ago):

EGXP 252250Z AUTO 17005KT 9999 // NCD 07/06 Q1004

TAF (pilot weather forecast)

Forecast is more than 12 hours old.

Closest forecast is RAF Scampton, 7.2 nm (13.4 km) W. Retrieved 2018/01/23 06:42 UTC (1 year ago):

TAF EGXP 230442Z 2306/2324 19014KT 9999 BKN025 BECMG 2306/2308 19017G27KT BKN012 TEMPO 2308/2311 7000 RA PROB30 TEMPO 2309/2311 4000 RADZ SCT006 BECMG 2311/2313 22017G27KT SCT025 TEMPO 2313/2315 SCT018